Tennis, South Dakota
Current Conditions -  °F | °C
As of 4:53 AM on Monday 22 Dec 2014 (Local Time) from KPIR Reporting Station
Overcast Overcast  
Wind Chill: 29°   Ceiling: 2300
Heat Index: 36°   Visibility: 10mi
Dew Point: 34°   Wind: 9mph
Humidity: 93%   Direction: 280°W
Pressure: 29.43"   Gusts: NA
Location:  44.5493°N, 99.483°W
Report Text: KPIR 221053Z AUTO 28008KT 10SM OVC023 02/01 A2943 RMK AO2 UPB04E18RAB18E38 SLP978 P0000 T00220011
Loading
Personal Weather Stations






























Interactive Weather Map New forecast layout! Learn more

10-Day Weather Forecast

Advertisements
Track Severe Weather on mobile